Etusivu
METAR-TAF:

METAR-TAF

Lentoasemat :

Djerba, Tunisia

Leveyspiiri: 33-52N, Pituuspiiri: 010-46E, korkeus merenpinnasta: 3 m

Tämänhetkinen sää

Tämä raportti tehtiin 27 minuuttia sitten, kello 21.00 UTC
Tuuli 3 kn etelästä
Lämpötila 12°C
Kosteus 82%
Ilmanpaine 1029 hPa
Näkyvyys: 8000 m

METAR: DTTJ 162100Z 17003KT 8000 NSC 12/09 Q1029 NOSIG

Aika: 22:27 (21:27 UTC)

Sääennuste

Tämä raportti tehtiin 4 tuntia ja 27 minuuttia sitten, kello 17.00 UTC
Ennuste voimassa 16. päivästä klo 18 UTC - 17. päivään klo 18 UTC
Tuuli 5 kn idästä
Näkyvyys 10 km tai enemmän
Muutamia pilviä 2300 ft:n korkeudessa
Todennäköisyys 30%
17. päivästä klo 04 UTC - 17. päivään klo 07 UTC
Tuuli 2 kn eri suunnista
Näkyvyys: 3000 m
Muutamia pilviä 1400 ft:n korkeudessa
utua

TAF: DTTJ 161700Z 1618/1718 09005KT 9999 FEW023 PROB30 1704/1707 VRB02KT 3000 BR FEW014

Säähavainnot ja -ennusteet yli 4000 lentoasemalta (METAR- ja TAF-raportit).

Käytössä olevat sääasemat on merkitty karttaan keltaisilla ja punaisilla pisteillä.

Aseta hiiri pisteen päälle nähdäksesi sääaseman nimen.

Klikkaa sitten nähdäksesi säähavainnot ja -ennusteet.

Kartan vaihtaminen: klikkaa mustalla rastilla varustettuja vihreitä pisteitä, niin voit zoomata sisään; viivalla varustettua vihreää pistettä, niin voit zoomata ulos tai vihreitä nuolia, niin pääset viereisille kartoille.


METAR-TAF: